createdAt,value
2019-05-18T00:00:45.800Z,0.00
2019-05-18T00:01:45.819Z,0.00
2019-05-18T00:02:45.841Z,0.00
2019-05-18T00:03:45.767Z,0.00
2019-05-18T00:04:45.758Z,0.00
2019-05-18T00:05:45.745Z,0.00
2019-05-18T00:06:45.736Z,0.00
2019-05-18T00:07:45.730Z,0.00
2019-05-18T00:08:45.750Z,0.00
2019-05-18T00:09:45.752Z,0.00
2019-05-18T00:10:45.691Z,0.00
2019-05-18T00:11:45.689Z,0.00
2019-05-18T00:12:45.728Z,0.00
2019-05-18T00:13:45.665Z,0.00
2019-05-18T00:14:45.648Z,0.00
2019-05-18T00:15:45.644Z,0.00
2019-05-18T00:16:45.625Z,0.00
2019-05-18T00:17:45.606Z,0.00
2019-05-18T00:18:45.670Z,0.00
2019-05-18T00:19:45.593Z,0.00
2019-05-18T00:20:45.577Z,0.00
2019-05-18T00:21:45.565Z,0.00
2019-05-18T00:22:45.558Z,0.00
2019-05-18T00:23:45.591Z,0.00
2019-05-18T00:24:45.539Z,0.00
2019-05-18T00:25:45.519Z,0.00
2019-05-18T00:26:45.555Z,0.00
2019-05-18T00:27:45.537Z,0.00
2019-05-18T00:28:45.491Z,0.00
2019-05-18T00:29:45.471Z,0.00
2019-05-18T00:30:45.507Z,0.00
2019-05-18T00:31:45.457Z,0.00
2019-05-18T00:32:45.438Z,0.00
2019-05-18T00:33:45.466Z,0.00
2019-05-18T00:34:45.429Z,0.00
2019-05-18T00:35:45.407Z,0.00
2019-05-18T00:36:45.406Z,0.00
2019-05-18T00:37:45.379Z,0.00
2019-05-18T00:38:45.431Z,0.00
2019-05-18T00:39:45.369Z,0.00
2019-05-18T00:40:45.347Z,0.00
2019-05-18T00:41:45.621Z,0.00
2019-05-18T00:42:45.322Z,0.00
2019-05-18T00:43:45.320Z,0.00
2019-05-18T00:44:45.347Z,0.00
2019-05-18T00:45:45.333Z,0.00
2019-05-18T00:46:45.284Z,0.00
2019-05-18T00:47:45.275Z,0.00
2019-05-18T00:48:45.257Z,0.00
2019-05-18T00:49:45.246Z,0.00
2019-05-18T00:50:45.271Z,0.00
2019-05-18T00:51:45.235Z,0.00
2019-05-18T00:52:45.266Z,0.00
2019-05-18T00:53:45.198Z,0.00
2019-05-18T00:54:45.188Z,0.00
2019-05-18T00:55:45.179Z,0.00
2019-05-18T00:56:45.167Z,0.00
2019-05-18T00:57:45.207Z,0.00
2019-05-18T00:58:45.160Z,0.00
2019-05-18T00:59:45.131Z,0.00
2019-05-18T01:00:45.122Z,0.00
2019-05-18T01:01:45.111Z,0.00
2019-05-18T01:02:45.096Z,0.00
2019-05-18T01:03:45.138Z,0.00
2019-05-18T01:04:45.097Z,0.00
2019-05-18T01:05:45.066Z,0.00
2019-05-18T01:06:45.052Z,0.00
2019-05-18T01:07:45.039Z,0.00
2019-05-18T01:08:45.038Z,0.00
2019-05-18T01:09:45.062Z,0.00
2019-05-18T01:10:45.013Z,0.00
2019-05-18T01:11:44.999Z,0.00
2019-05-18T01:12:45.032Z,0.00
2019-05-18T01:13:44.978Z,0.00
2019-05-18T01:14:44.980Z,0.00
2019-05-18T01:15:44.954Z,0.00
2019-05-18T01:16:44.950Z,0.00
2019-05-18T01:17:56.990Z,0.00
2019-05-18T01:18:45.962Z,0.00
2019-05-18T01:19:44.925Z,0.00
2019-05-18T01:20:44.895Z,0.00
2019-05-18T01:21:44.879Z,0.00
2019-05-18T01:22:44.875Z,0.00
2019-05-18T01:23:44.866Z,0.00
2019-05-18T01:24:44.894Z,0.00
2019-05-18T01:25:44.891Z,0.00
2019-05-18T01:26:44.863Z,0.00
2019-05-18T01:27:44.812Z,0.00
2019-05-18T01:28:44.817Z,0.00
2019-05-18T01:29:44.794Z,0.00
2019-05-18T01:30:44.780Z,0.00
2019-05-18T01:31:44.819Z,0.00
2019-05-18T01:32:44.806Z,0.00
2019-05-18T01:33:44.746Z,0.00
2019-05-18T01:34:44.742Z,0.00
2019-05-18T01:35:44.727Z,0.00
2019-05-18T01:36:44.710Z,0.00
2019-05-18T01:37:44.739Z,0.00
2019-05-18T01:38:44.730Z,0.00
2019-05-18T01:39:44.690Z,0.00
2019-05-18T01:40:44.669Z,0.00
2019-05-18T01:41:44.678Z,0.00
2019-05-18T01:42:44.663Z,0.00
2019-05-18T01:43:44.642Z,0.00
2019-05-18T01:44:44.665Z,0.00
2019-05-18T01:45:44.628Z,0.00
2019-05-18T01:46:44.623Z,0.00
2019-05-18T01:47:44.586Z,0.00
2019-05-18T01:48:44.618Z,0.00
2019-05-18T01:49:44.594Z,0.00
2019-05-18T01:50:44.553Z,0.00
2019-05-18T01:51:44.541Z,0.00
2019-05-18T01:52:44.531Z,0.00
2019-05-18T01:53:44.521Z,0.00
2019-05-18T01:54:44.553Z,0.00
2019-05-18T01:55:44.502Z,0.00
2019-05-18T01:56:44.493Z,0.00
2019-05-18T01:57:44.472Z,0.00
2019-05-18T01:58:44.472Z,0.00
2019-05-18T01:59:44.447Z,0.00
2019-05-18T02:00:44.484Z,0.00
2019-05-18T02:01:44.426Z,0.00
2019-05-18T02:02:44.417Z,0.00
2019-05-18T02:03:44.405Z,0.00
2019-05-18T02:04:44.466Z,0.00
2019-05-18T02:05:44.385Z,0.00
2019-05-18T02:06:44.387Z,0.00
2019-05-18T02:07:44.367Z,0.00
2019-05-18T02:08:44.394Z,0.00
2019-05-18T02:09:44.377Z,0.00
2019-05-18T02:10:44.374Z,0.00
2019-05-18T02:11:44.320Z,0.00
2019-05-18T02:12:44.305Z,0.00
2019-05-18T02:13:44.288Z,0.00
2019-05-18T02:14:44.283Z,0.00
2019-05-18T02:15:44.267Z,0.00
2019-05-18T02:16:44.299Z,0.00
2019-05-18T02:17:44.256Z,0.00
2019-05-18T02:18:44.230Z,0.00
2019-05-18T02:19:44.221Z,0.00
2019-05-18T02:20:44.251Z,0.00
2019-05-18T02:21:44.210Z,0.00
2019-05-18T02:22:44.229Z,0.00
2019-05-18T02:23:44.263Z,0.00
2019-05-18T02:24:44.165Z,0.00
2019-05-18T02:25:44.160Z,0.00
2019-05-18T02:26:44.148Z,0.00
2019-05-18T02:27:44.130Z,0.00
2019-05-18T02:28:44.165Z,0.00
2019-05-18T02:29:44.147Z,0.00
2019-05-18T02:30:44.101Z,0.00
2019-05-18T02:31:44.093Z,0.00
2019-05-18T02:32:44.073Z,0.00
2019-05-18T02:33:44.110Z,0.00
2019-05-18T02:34:44.070Z,0.00
2019-05-18T02:35:44.090Z,0.00
2019-05-18T02:36:44.033Z,0.00
2019-05-18T02:37:44.017Z,0.00
2019-05-18T02:38:44.005Z,0.00
2019-05-18T02:39:44.005Z,0.00
2019-05-18T02:40:44.051Z,0.00
2019-05-18T02:41:44.002Z,0.00
2019-05-18T02:42:43.969Z,0.00
2019-05-18T02:43:43.951Z,0.00
2019-05-18T02:44:43.942Z,0.00
2019-05-18T02:45:43.943Z,0.00
2019-05-18T02:46:43.953Z,0.00
2019-05-18T02:47:43.905Z,0.00
2019-05-18T02:48:49.477Z,0.00
2019-05-18T02:49:44.930Z,0.00
2019-05-18T02:50:43.868Z,0.00
2019-05-18T02:51:43.866Z,0.00
2019-05-18T02:52:43.853Z,0.00
2019-05-18T02:53:43.837Z,0.00
2019-05-18T02:54:43.874Z,0.00
2019-05-18T02:55:43.856Z,0.00
2019-05-18T02:56:43.806Z,0.00
2019-05-18T02:57:43.832Z,0.00
2019-05-18T02:58:43.811Z,0.00
2019-05-18T02:59:43.819Z,0.00
2019-05-18T03:00:43.793Z,0.00
2019-05-18T03:01:43.745Z,0.00
2019-05-18T03:02:43.735Z,0.00
2019-05-18T03:03:43.758Z,0.00
2019-05-18T03:04:43.753Z,0.00
2019-05-18T03:05:43.701Z,0.00
2019-05-18T03:06:43.722Z,0.00
2019-05-18T03:07:43.676Z,0.00
2019-05-18T03:08:43.671Z,0.00
2019-05-18T03:09:43.668Z,0.00
2019-05-18T03:10:43.684Z,0.00
2019-05-18T03:11:43.635Z,4.00
2019-05-18T03:12:43.620Z,4.00
2019-05-18T03:13:43.619Z,0.00
2019-05-18T03:14:43.601Z,0.00
2019-05-18T03:15:43.633Z,4.00
2019-05-18T03:16:43.582Z,0.00
2019-05-18T03:17:43.574Z,4.00
2019-05-18T03:18:43.552Z,4.00
2019-05-18T03:19:43.580Z,4.00
2019-05-18T03:20:43.532Z,4.00
2019-05-18T03:21:43.561Z,4.00
2019-05-18T03:22:43.507Z,8.00
2019-05-18T03:23:43.496Z,8.00
2019-05-18T03:24:43.484Z,12.00
2019-05-18T03:25:43.481Z,12.00
2019-05-18T03:26:43.506Z,16.00
2019-05-18T03:27:43.451Z,16.00
2019-05-18T03:28:43.444Z,16.00
2019-05-18T03:29:43.432Z,20.00
2019-05-18T03:30:43.423Z,24.00
2019-05-18T03:31:43.547Z,28.00
2019-05-18T03:32:43.437Z,32.00
2019-05-18T03:33:43.388Z,32.00
2019-05-18T03:34:43.374Z,36.00
2019-05-18T03:35:43.378Z,40.00
2019-05-18T03:36:43.362Z,44.00
2019-05-18T03:37:43.380Z,44.00
2019-05-18T03:38:43.330Z,44.00
2019-05-18T03:39:43.317Z,48.00
2019-05-18T03:40:43.308Z,48.00
2019-05-18T03:41:43.302Z,52.00
2019-05-18T03:42:43.280Z,56.00
2019-05-18T03:43:43.311Z,60.00
2019-05-18T03:44:43.257Z,64.00
2019-05-18T03:45:43.247Z,68.00
2019-05-18T03:46:43.236Z,72.00
2019-05-18T03:47:43.232Z,80.00
2019-05-18T03:48:43.212Z,88.00
2019-05-18T03:49:43.254Z,100.00
2019-05-18T03:50:43.191Z,112.00
2019-05-18T03:51:43.183Z,128.00
2019-05-18T03:52:43.171Z,140.00
2019-05-18T03:53:43.203Z,160.00
2019-05-18T03:54:43.153Z,176.00
2019-05-18T03:55:43.151Z,192.00
2019-05-18T03:56:43.170Z,208.00
2019-05-18T03:57:43.115Z,224.00
2019-05-18T03:58:43.146Z,244.00
2019-05-18T03:59:43.090Z,264.00
2019-05-18T04:00:43.091Z,280.00
2019-05-18T04:01:43.069Z,300.00
2019-05-18T04:02:43.099Z,316.00
2019-05-18T04:03:43.091Z,324.00
2019-05-18T04:04:43.090Z,332.00
2019-05-18T04:05:43.026Z,340.00
2019-05-18T04:06:43.017Z,352.00
2019-05-18T04:07:43.013Z,372.00
2019-05-18T04:08:42.988Z,396.00
2019-05-18T04:09:43.016Z,424.00
2019-05-18T04:10:43.013Z,456.00
2019-05-18T04:11:42.961Z,496.00
2019-05-18T04:12:42.980Z,540.00
2019-05-18T04:13:42.988Z,588.00
2019-05-18T04:14:42.970Z,640.00
2019-05-18T04:15:42.960Z,696.00
2019-05-18T04:16:42.922Z,748.00
2019-05-18T04:17:42.910Z,808.00
2019-05-18T04:18:42.882Z,860.00
2019-05-18T04:19:46.974Z,908.00
2019-05-18T04:20:42.866Z,948.00
2019-05-18T04:21:42.890Z,984.00
2019-05-18T04:22:42.828Z,1016.00
2019-05-18T04:23:42.865Z,1040.00
2019-05-18T04:24:42.815Z,1060.00
2019-05-18T04:25:43.938Z,1088.00
2019-05-18T04:26:42.785Z,1124.00
2019-05-18T04:27:42.813Z,1172.00
2019-05-18T04:28:42.813Z,1220.00
2019-05-18T04:29:42.750Z,1268.00
2019-05-18T04:30:42.757Z,1308.00
2019-05-18T04:31:42.726Z,1348.00
2019-05-18T04:32:42.716Z,1388.00
2019-05-18T04:33:42.705Z,1420.00
2019-05-18T04:34:42.743Z,1452.00
2019-05-18T04:35:42.687Z,1472.00
2019-05-18T04:36:42.671Z,1488.00
2019-05-18T04:37:42.718Z,1508.00
2019-05-18T04:38:42.655Z,1528.00
2019-05-18T04:39:42.635Z,1548.00
2019-05-18T04:40:42.628Z,1572.00
2019-05-18T04:41:42.617Z,1584.00
2019-05-18T04:42:42.673Z,1596.00
2019-05-18T04:43:42.653Z,1612.00
2019-05-18T04:44:42.581Z,1632.00
2019-05-18T04:45:42.614Z,1656.00
2019-05-18T04:46:42.578Z,1692.00
2019-05-18T04:47:42.565Z,1724.00
2019-05-18T04:48:42.576Z,1744.00
2019-05-18T04:49:42.527Z,1740.00
2019-05-18T04:50:42.513Z,1724.00
2019-05-18T04:51:42.506Z,1712.00
2019-05-18T04:52:42.485Z,1708.00
2019-05-18T04:53:42.484Z,1704.00
2019-05-18T04:54:42.508Z,1708.00
2019-05-18T04:55:42.458Z,1728.00
2019-05-18T04:56:43.197Z,1760.00
2019-05-18T04:57:42.484Z,1800.00
2019-05-18T04:58:42.465Z,1832.00
2019-05-18T04:59:42.412Z,1860.00
2019-05-18T05:00:42.397Z,1876.00
2019-05-18T05:01:42.469Z,1888.00
2019-05-18T05:02:42.399Z,1888.00
2019-05-18T05:03:42.383Z,1876.00
2019-05-18T05:04:42.401Z,1856.00
2019-05-18T05:05:42.345Z,1832.00
2019-05-18T05:06:42.403Z,1808.00
2019-05-18T05:07:42.352Z,1748.00
2019-05-18T05:08:42.323Z,1656.00
2019-05-18T05:09:42.293Z,1552.00
2019-05-18T05:10:42.293Z,1476.00
2019-05-18T05:11:42.302Z,1436.00
2019-05-18T05:12:42.310Z,1404.00
2019-05-18T05:13:42.305Z,1376.00
2019-05-18T05:14:42.294Z,1344.00
2019-05-18T05:15:42.243Z,1320.00
2019-05-18T05:16:42.231Z,1312.00
2019-05-18T05:17:42.258Z,1328.00
2019-05-18T05:18:42.244Z,1368.00
2019-05-18T05:19:42.213Z,1424.00
2019-05-18T05:20:42.233Z,1492.00
2019-05-18T05:21:42.158Z,1580.00
2019-05-18T05:22:42.158Z,1660.00
2019-05-18T05:23:42.211Z,1732.00
2019-05-18T05:24:42.179Z,1796.00
2019-05-18T05:25:42.118Z,1856.00
2019-05-18T05:26:42.111Z,1932.00
2019-05-18T05:27:42.135Z,2000.00
2019-05-18T05:28:42.085Z,2076.00
2019-05-18T05:29:42.093Z,2156.00
2019-05-18T05:30:42.094Z,2240.00
2019-05-18T05:31:42.105Z,2320.00
2019-05-18T05:32:42.041Z,2388.00
2019-05-18T05:33:42.024Z,2456.00
2019-05-18T05:34:42.075Z,2532.00
2019-05-18T05:35:42.006Z,2604.00
2019-05-18T05:36:42.015Z,2676.00
2019-05-18T05:37:41.982Z,2732.00
2019-05-18T05:38:41.971Z,2784.00
2019-05-18T05:39:41.991Z,2848.00
2019-05-18T05:40:41.987Z,2928.00
2019-05-18T05:41:41.958Z,3028.00
2019-05-18T05:42:41.933Z,3144.00
2019-05-18T05:43:41.915Z,3284.00
2019-05-18T05:44:41.909Z,3420.00
2019-05-18T05:45:41.937Z,3512.00
2019-05-18T05:46:41.890Z,3584.00
2019-05-18T05:47:41.873Z,3660.00
2019-05-18T05:48:41.866Z,3748.00
2019-05-18T05:49:41.896Z,3840.00
2019-05-18T05:50:41.854Z,3924.00
2019-05-18T05:51:41.894Z,3980.00
2019-05-18T05:52:41.958Z,4036.00
2019-05-18T05:53:41.807Z,4136.00
2019-05-18T05:54:41.824Z,4268.00
2019-05-18T05:55:41.803Z,4436.00
2019-05-18T05:56:41.830Z,4640.00
2019-05-18T05:57:41.761Z,4844.00
2019-05-18T05:58:41.771Z,5020.00
2019-05-18T05:59:41.766Z,5160.00
2019-05-18T06:00:41.730Z,5304.00
2019-05-18T06:01:41.711Z,5440.00
2019-05-18T06:02:41.792Z,5588.00
2019-05-18T06:03:41.733Z,5732.00
2019-05-18T06:04:41.699Z,5848.00
2019-05-18T06:05:41.680Z,5928.00
2019-05-18T06:06:41.654Z,5932.00
2019-05-18T06:07:41.706Z,5916.00
2019-05-18T06:08:41.654Z,5864.00
2019-05-18T06:09:41.620Z,5764.00
2019-05-18T06:10:41.666Z,5616.00
2019-05-18T06:11:41.599Z,5484.00
2019-05-18T06:12:41.619Z,5388.00
2019-05-18T06:13:41.580Z,5320.00
2019-05-18T06:14:41.580Z,5300.00
2019-05-18T06:15:41.604Z,5292.00
2019-05-18T06:16:41.561Z,5280.00
2019-05-18T06:17:41.540Z,5208.00
2019-05-18T06:18:41.536Z,5080.00
2019-05-18T06:19:41.515Z,5024.00
2019-05-18T06:20:50.900Z,5088.00
2019-05-18T06:21:42.555Z,5228.00
2019-05-18T06:22:41.493Z,5364.00
2019-05-18T06:23:41.509Z,5420.00
2019-05-18T06:24:41.493Z,5444.00
2019-05-18T06:25:41.443Z,5472.00
2019-05-18T06:26:41.498Z,5516.00
2019-05-18T06:27:41.475Z,5568.00
2019-05-18T06:28:41.434Z,5656.00
2019-05-18T06:29:41.468Z,5804.00
2019-05-18T06:30:41.385Z,5960.00
2019-05-18T06:31:41.403Z,6112.00
2019-05-18T06:32:41.371Z,6268.00
2019-05-18T06:33:41.355Z,6396.00
2019-05-18T06:34:41.416Z,6568.00
2019-05-18T06:35:41.326Z,6704.00
2019-05-18T06:36:41.317Z,6864.00
2019-05-18T06:37:41.337Z,7044.00
2019-05-18T06:38:41.352Z,7256.00
2019-05-18T06:39:41.295Z,7360.00
2019-05-18T06:40:41.319Z,7468.00
2019-05-18T06:41:41.310Z,7524.00
2019-05-18T06:42:41.257Z,7532.00
2019-05-18T06:43:41.242Z,7512.00
2019-05-18T06:44:41.230Z,7464.00
2019-05-18T06:45:41.227Z,7412.00
2019-05-18T06:46:41.216Z,7376.00
2019-05-18T06:47:41.242Z,7340.00
2019-05-18T06:48:41.186Z,7248.00
2019-05-18T06:49:41.175Z,7192.00
2019-05-18T06:50:41.169Z,7220.00
2019-05-18T06:51:41.149Z,7376.00
2019-05-18T06:52:41.177Z,7620.00
2019-05-18T06:53:41.129Z,7872.00
2019-05-18T06:54:41.120Z,8120.00
2019-05-18T06:55:41.124Z,8376.00
2019-05-18T06:56:41.142Z,8588.00
2019-05-18T06:57:41.126Z,8728.00
2019-05-18T06:58:41.068Z,8824.00
2019-05-18T06:59:41.076Z,8896.00
2019-05-18T07:00:41.104Z,8948.00
2019-05-18T07:01:41.058Z,8968.00
2019-05-18T07:02:41.104Z,8984.00
2019-05-18T07:03:41.022Z,9000.00
2019-05-18T07:04:41.009Z,9012.00
2019-05-18T07:05:41.066Z,9056.00
2019-05-18T07:06:41.026Z,9108.00
2019-05-18T07:07:41.025Z,9176.00
2019-05-18T07:08:40.955Z,9252.00
2019-05-18T07:09:40.961Z,9328.00
2019-05-18T07:10:40.950Z,9384.00
2019-05-18T07:11:40.931Z,9424.00
2019-05-18T07:12:40.934Z,9452.00
2019-05-18T07:13:40.971Z,9444.00
2019-05-18T07:14:40.923Z,9396.00
2019-05-18T07:15:40.931Z,9336.00
2019-05-18T07:16:40.890Z,9244.00
2019-05-18T07:17:40.871Z,9144.00
2019-05-18T07:18:40.901Z,9048.00
2019-05-18T07:19:40.841Z,8980.00
2019-05-18T07:20:40.830Z,8932.00
2019-05-18T07:21:40.858Z,8980.00
2019-05-18T07:22:40.874Z,9056.00
2019-05-18T07:23:43.750Z,9116.00
2019-05-18T07:24:40.797Z,9136.00
2019-05-18T07:25:40.794Z,9116.00
2019-05-18T07:26:40.870Z,9080.00
2019-05-18T07:27:40.745Z,9044.00
2019-05-18T07:28:40.791Z,9032.00
2019-05-18T07:29:40.741Z,9032.00
2019-05-18T07:30:40.766Z,9028.00
2019-05-18T07:31:40.717Z,9024.00
2019-05-18T07:32:40.739Z,9016.00
2019-05-18T07:33:40.700Z,9012.00
2019-05-18T07:34:40.734Z,9004.00
2019-05-18T07:35:40.664Z,9012.00
2019-05-18T07:36:40.663Z,9040.00
2019-05-18T07:37:40.683Z,9088.00
2019-05-18T07:38:40.674Z,9132.00
2019-05-18T07:39:40.691Z,9180.00
2019-05-18T07:40:40.632Z,9220.00
2019-05-18T07:41:46.719Z,9268.00
2019-05-18T07:42:41.590Z,9272.00
2019-05-18T07:43:40.578Z,9232.00
2019-05-18T07:44:40.563Z,9164.00
2019-05-18T07:45:40.601Z,9088.00
2019-05-18T07:46:40.540Z,9020.00
2019-05-18T07:47:40.582Z,8964.00
2019-05-18T07:48:40.529Z,8932.00
2019-05-18T07:49:40.582Z,8932.00
2019-05-18T07:50:40.495Z,8948.00
2019-05-18T07:51:40.536Z,8976.00
2019-05-18T07:52:40.480Z,9012.00
2019-05-18T07:53:40.487Z,9088.00
2019-05-18T07:54:40.452Z,9212.00
2019-05-18T07:55:40.521Z,9392.00
2019-05-18T07:56:40.443Z,9612.00
2019-05-18T07:57:40.440Z,9844.00
2019-05-18T07:58:40.437Z,10076.00
2019-05-18T07:59:40.407Z,10296.00
2019-05-18T08:00:40.390Z,10508.00
2019-05-18T08:01:40.440Z,10688.00
2019-05-18T08:02:40.374Z,10884.00
2019-05-18T08:03:40.369Z,11068.00
2019-05-18T08:04:40.416Z,11248.00
2019-05-18T08:05:40.331Z,11416.00
2019-05-18T08:06:40.342Z,11548.00
2019-05-18T08:07:40.309Z,11628.00
2019-05-18T08:08:40.302Z,11708.00
2019-05-18T08:09:40.346Z,11784.00
2019-05-18T08:10:43.495Z,11852.00
2019-05-18T08:11:40.283Z,11948.00
2019-05-18T08:12:40.299Z,11944.00
2019-05-18T08:13:40.292Z,11948.00
2019-05-18T08:14:40.231Z,11960.00
2019-05-18T08:15:40.276Z,11964.00
2019-05-18T08:16:40.228Z,11976.00
2019-05-18T08:17:40.223Z,12008.00
2019-05-18T08:18:40.194Z,12036.00
2019-05-18T08:19:40.226Z,12088.00
2019-05-18T08:20:40.174Z,12140.00
2019-05-18T08:21:52.116Z,12212.00
2019-05-18T08:22:41.198Z,12288.00
2019-05-18T08:23:40.143Z,12368.00
2019-05-18T08:24:40.187Z,12464.00
2019-05-18T08:25:40.135Z,12556.00
2019-05-18T08:26:40.145Z,12604.00
2019-05-18T08:27:40.091Z,12588.00
2019-05-18T08:28:40.121Z,12548.00
2019-05-18T08:29:40.061Z,12488.00
2019-05-18T08:30:40.053Z,12444.00
2019-05-18T08:31:40.090Z,12316.00
2019-05-18T08:32:40.028Z,12140.00
2019-05-18T08:33:40.024Z,12040.00
2019-05-18T08:34:40.020Z,11712.00
2019-05-18T08:35:40.031Z,11388.00
2019-05-18T08:36:40.005Z,11324.00
2019-05-18T08:37:40.024Z,11012.00
2019-05-18T08:38:39.960Z,10860.00
2019-05-18T08:39:39.967Z,10612.00
2019-05-18T08:40:39.985Z,10432.00
2019-05-18T08:41:39.969Z,10360.00
2019-05-18T08:42:39.916Z,10240.00
2019-05-18T08:43:39.921Z,10052.00
2019-05-18T08:44:39.897Z,9892.00
2019-05-18T08:45:39.897Z,9904.00
2019-05-18T08:46:39.884Z,9752.00
2019-05-18T08:47:39.922Z,9704.00
2019-05-18T08:48:39.861Z,9648.00
2019-05-18T08:49:39.844Z,9500.00
2019-05-18T08:50:39.835Z,9668.00
2019-05-18T08:51:39.826Z,9824.00
2019-05-18T08:52:39.852Z,9748.00
2019-05-18T08:53:39.793Z,10044.00
2019-05-18T08:54:39.803Z,10252.00
2019-05-18T08:55:39.830Z,10456.00
2019-05-18T08:56:39.799Z,10588.00
2019-05-18T08:57:39.825Z,10736.00
2019-05-18T08:58:39.743Z,10780.00
2019-05-18T08:59:40.063Z,10792.00
2019-05-18T09:00:39.712Z,10752.00
2019-05-18T09:01:39.699Z,10788.00
2019-05-18T09:02:39.732Z,10596.00
2019-05-18T09:03:39.694Z,10512.00
2019-05-18T09:04:39.667Z,10572.00
2019-05-18T09:05:39.678Z,10844.00
2019-05-18T09:06:39.676Z,11228.00
2019-05-18T09:07:39.705Z,11532.00
2019-05-18T09:08:39.666Z,11852.00
2019-05-18T09:09:39.647Z,12144.00
2019-05-18T09:10:39.991Z,12432.00
2019-05-18T09:11:39.592Z,12932.00
2019-05-18T09:12:39.623Z,13232.00
2019-05-18T09:13:39.579Z,13356.00
2019-05-18T09:14:39.579Z,13540.00
2019-05-18T09:15:39.545Z,13540.00
2019-05-18T09:16:39.589Z,13520.00
2019-05-18T09:17:39.530Z,13656.00
2019-05-18T09:18:39.510Z,13728.00
2019-05-18T09:19:39.502Z,13784.00
2019-05-18T09:20:39.498Z,13740.00
2019-05-18T09:21:39.523Z,13884.00
2019-05-18T09:22:39.471Z,13840.00
2019-05-18T09:23:39.489Z,13640.00
2019-05-18T09:24:39.463Z,13688.00
2019-05-18T09:25:39.483Z,13684.00
2019-05-18T09:26:39.491Z,13716.00
2019-05-18T09:27:39.472Z,13744.00
2019-05-18T09:28:39.462Z,13736.00
2019-05-18T09:29:39.394Z,13660.00
2019-05-18T09:30:41.253Z,13540.00
2019-05-18T09:31:39.434Z,13392.00
2019-05-18T09:32:39.364Z,13052.00
2019-05-18T09:33:39.348Z,13108.00
2019-05-18T09:34:39.332Z,13216.00
2019-05-18T09:35:39.325Z,13124.00
2019-05-18T09:36:39.432Z,13060.00
2019-05-18T09:37:39.336Z,13232.00
2019-05-18T09:38:39.296Z,13680.00
2019-05-18T09:39:39.277Z,13308.00
2019-05-18T09:40:39.328Z,13492.00
2019-05-18T09:41:39.340Z,13540.00
2019-05-18T09:42:39.285Z,13664.00
2019-05-18T09:43:39.246Z,14088.00
2019-05-18T09:44:39.217Z,13984.00
2019-05-18T09:45:39.215Z,13496.00
2019-05-18T09:46:39.257Z,13388.00
2019-05-18T09:47:39.199Z,13364.00
2019-05-18T09:48:39.186Z,13244.00
2019-05-18T09:49:39.164Z,13080.00
2019-05-18T09:50:39.168Z,13072.00
2019-05-18T09:51:39.188Z,13004.00
2019-05-18T09:52:45.445Z,12992.00
2019-05-18T09:53:50.657Z,12756.00
2019-05-18T09:54:40.126Z,13000.00
2019-05-18T09:55:39.106Z,13096.00
2019-05-18T09:56:39.134Z,12904.00
2019-05-18T09:57:39.097Z,12692.00
2019-05-18T09:58:39.069Z,12604.00
2019-05-18T09:59:39.074Z,12676.00
2019-05-18T10:00:39.312Z,12264.00
2019-05-18T10:01:39.058Z,12220.00
2019-05-18T10:02:39.083Z,11992.00
2019-05-18T10:03:39.008Z,12100.00
2019-05-18T10:04:39.008Z,11948.00
2019-05-18T10:05:38.994Z,12012.00
2019-05-18T10:06:38.993Z,12052.00
2019-05-18T10:07:38.974Z,12268.00
2019-05-18T10:08:39.001Z,12572.00
2019-05-18T10:09:39.812Z,13236.00
2019-05-18T10:10:38.935Z,13408.00
2019-05-18T10:11:39.055Z,13372.00
2019-05-18T10:12:38.918Z,13500.00
2019-05-18T10:13:38.998Z,13572.00
2019-05-18T10:14:38.890Z,13712.00
2019-05-18T10:15:38.884Z,14024.00
2019-05-18T10:16:38.873Z,13992.00
2019-05-18T10:17:38.859Z,14076.00
2019-05-18T10:18:38.863Z,14232.00
2019-05-18T10:19:38.883Z,14460.00
2019-05-18T10:20:38.836Z,14620.00
2019-05-18T10:21:38.817Z,14824.00
2019-05-18T10:22:53.375Z,15136.00
2019-05-18T10:23:40.557Z,15336.00
2019-05-18T10:24:38.821Z,15612.00
2019-05-18T10:25:38.822Z,16096.00
2019-05-18T10:26:38.763Z,16156.00
2019-05-18T10:27:38.780Z,16468.00
2019-05-18T10:28:38.793Z,16672.00
2019-05-18T10:29:38.739Z,17024.00
2019-05-18T10:30:38.723Z,16736.00
2019-05-18T10:31:38.762Z,16800.00
2019-05-18T10:32:38.718Z,16832.00
2019-05-18T10:33:38.688Z,17312.00
2019-05-18T10:34:38.735Z,17536.00
2019-05-18T10:35:38.666Z,17440.00
2019-05-18T10:36:38.676Z,17856.00
2019-05-18T10:37:38.660Z,17024.00
2019-05-18T10:38:38.631Z,17024.00
2019-05-18T10:39:38.927Z,17312.00
2019-05-18T10:40:38.659Z,16992.00
2019-05-18T10:41:38.602Z,15816.00
2019-05-18T10:42:38.595Z,15520.00
2019-05-18T10:43:38.589Z,15232.00
2019-05-18T10:44:38.583Z,14788.00
2019-05-18T10:45:38.615Z,14352.00
2019-05-18T10:46:38.545Z,14020.00
2019-05-18T10:47:38.545Z,13080.00
2019-05-18T10:48:38.548Z,11916.00
2019-05-18T10:49:38.515Z,11536.00
2019-05-18T10:50:38.542Z,11208.00
2019-05-18T10:51:38.554Z,10912.00
2019-05-18T10:52:38.515Z,10620.00
2019-05-18T10:53:38.474Z,10508.00
2019-05-18T10:54:38.513Z,10444.00
2019-05-18T10:55:38.441Z,10108.00
2019-05-18T10:56:38.451Z,10056.00
2019-05-18T10:57:38.466Z,10056.00
2019-05-18T10:58:38.423Z,10252.00
2019-05-18T10:59:38.401Z,10436.00
2019-05-18T11:00:38.412Z,10392.00
2019-05-18T11:01:38.429Z,10296.00
2019-05-18T11:02:38.385Z,10712.00
2019-05-18T11:03:38.365Z,11332.00
2019-05-18T11:04:38.414Z,11404.00
2019-05-18T11:05:38.334Z,11656.00
2019-05-18T11:06:38.335Z,11960.00
2019-05-18T11:07:38.329Z,12272.00
2019-05-18T11:08:38.572Z,12668.00
2019-05-18T11:09:38.289Z,13016.00
2019-05-18T11:10:38.333Z,13232.00
2019-05-18T11:11:38.269Z,12164.00
2019-05-18T11:12:38.285Z,12276.00
2019-05-18T11:13:38.249Z,11988.00
2019-05-18T11:14:38.294Z,11644.00
2019-05-18T11:15:38.221Z,11180.00
2019-05-18T11:16:38.214Z,10672.00
2019-05-18T11:17:38.211Z,10544.00
2019-05-18T11:18:38.189Z,10820.00
2019-05-18T11:19:38.224Z,11204.00
2019-05-18T11:20:38.221Z,11752.00
2019-05-18T11:21:38.153Z,12176.00
2019-05-18T11:22:38.154Z,11228.00
2019-05-18T11:23:44.176Z,12628.00
2019-05-18T11:24:39.130Z,11048.00
2019-05-18T11:25:38.190Z,11100.00
2019-05-18T11:26:38.102Z,11484.00
2019-05-18T11:27:38.099Z,11888.00
2019-05-18T11:28:38.090Z,12032.00
2019-05-18T11:29:38.082Z,12024.00
2019-05-18T11:30:38.055Z,11704.00
2019-05-18T11:31:38.114Z,11352.00
2019-05-18T11:32:38.036Z,11236.00
2019-05-18T11:33:38.033Z,11188.00
2019-05-18T11:34:38.070Z,11284.00
2019-05-18T11:35:38.000Z,11632.00
2019-05-18T11:36:38.006Z,11652.00
2019-05-18T11:37:38.036Z,13996.00
2019-05-18T11:38:38.019Z,14552.00
2019-05-18T11:39:37.963Z,12584.00
2019-05-18T11:40:37.945Z,14936.00
2019-05-18T11:41:37.933Z,15120.00
2019-05-18T11:42:37.943Z,15392.00
2019-05-18T11:43:37.957Z,15628.00
2019-05-18T11:44:37.911Z,15616.00
2019-05-18T11:45:37.904Z,15736.00
2019-05-18T11:46:37.892Z,15976.00
2019-05-18T11:47:37.871Z,15956.00
2019-05-18T11:48:37.925Z,15888.00
2019-05-18T11:49:37.855Z,15912.00
2019-05-18T11:50:37.878Z,16224.00
2019-05-18T11:51:37.825Z,15972.00
2019-05-18T11:52:37.817Z,14772.00
2019-05-18T11:53:37.827Z,14236.00
2019-05-18T11:54:37.848Z,13144.00
2019-05-18T11:55:37.802Z,13020.00
2019-05-18T11:56:37.772Z,12548.00
2019-05-18T11:57:37.793Z,12160.00
2019-05-18T11:58:37.763Z,11820.00
2019-05-18T11:59:37.735Z,11500.00
2019-05-18T12:00:37.791Z,11320.00
2019-05-18T12:01:37.741Z,11224.00
2019-05-18T12:02:37.719Z,11296.00
2019-05-18T12:03:37.701Z,11472.00
2019-05-18T12:04:37.682Z,11528.00
2019-05-18T12:05:37.732Z,11516.00
2019-05-18T12:06:37.665Z,11716.00
2019-05-18T12:07:37.699Z,12040.00
2019-05-18T12:08:37.647Z,12152.00
2019-05-18T12:09:37.668Z,12384.00
2019-05-18T12:10:37.615Z,12672.00
2019-05-18T12:11:37.678Z,13352.00
2019-05-18T12:12:37.622Z,13776.00
2019-05-18T12:13:37.608Z,13884.00
2019-05-18T12:14:37.589Z,13884.00
2019-05-18T12:15:37.603Z,13816.00
2019-05-18T12:16:37.556Z,13756.00
2019-05-18T12:17:37.540Z,13560.00
2019-05-18T12:18:37.542Z,13396.00
2019-05-18T12:19:37.516Z,13180.00